createdAt,value
2023-04-07T00:01:19.520Z,97982.78
2023-04-07T00:03:52.596Z,97983.56
2023-04-07T00:06:25.807Z,97976.59
2023-04-07T00:08:58.777Z,97980.81
2023-04-07T00:11:31.776Z,97976.63
2023-04-07T00:14:06.151Z,97973.09
2023-04-07T00:16:39.066Z,97981.97
2023-04-07T00:19:12.075Z,97980.63
2023-04-07T00:21:45.066Z,97971.81
2023-04-07T00:24:31.046Z,97976.88
2023-04-07T00:27:07.083Z,97963.03
2023-04-07T00:29:43.663Z,97963.38
2023-04-07T00:32:16.649Z,97963.16
2023-04-07T00:34:49.599Z,97959.19
2023-04-07T00:37:22.736Z,97950.03
2023-04-07T00:39:57.242Z,97947.72
2023-04-07T00:42:30.265Z,97944.16
2023-04-07T00:45:05.431Z,97949.69
2023-04-07T00:47:38.472Z,97945.25
2023-04-07T00:50:13.048Z,97938.41
2023-04-07T00:52:47.016Z,97936.63
2023-04-07T00:55:20.373Z,97926.59
2023-04-07T00:57:53.417Z,97919.31
2023-04-07T01:00:29.192Z,97923.84
2023-04-07T01:03:11.964Z,97922.94
2023-04-07T01:05:54.588Z,97916.25
2023-04-07T01:08:36.316Z,97913.16
2023-04-07T01:11:14.949Z,97912.28
2023-04-07T01:13:51.540Z,97909.00
2023-04-07T01:16:37.107Z,97905.88
2023-04-07T01:19:17.830Z,97908.09
2023-04-07T01:21:54.057Z,97896.84
2023-04-07T01:24:47.073Z,97886.81
2023-04-07T01:27:30.042Z,97888.25
2023-04-07T01:30:06.590Z,97882.63
2023-04-07T01:32:42.720Z,97875.34
2023-04-07T01:35:17.727Z,97892.34
2023-04-07T01:37:52.170Z,97876.53
2023-04-07T01:40:26.741Z,97879.00
2023-04-07T01:43:01.134Z,97880.44
2023-04-07T01:45:37.022Z,97877.78
2023-04-07T01:48:10.329Z,97877.69
2023-04-07T01:50:44.533Z,97879.44
2023-04-07T01:53:18.164Z,97873.81
2023-04-07T01:55:51.800Z,97875.03
2023-04-07T01:58:25.760Z,97864.28
2023-04-07T02:01:00.739Z,97863.09
2023-04-07T02:03:42.245Z,97868.47
2023-04-07T02:06:20.775Z,97862.97
2023-04-07T02:09:00.677Z,97856.44
2023-04-07T02:11:35.735Z,97854.25
2023-04-07T02:14:09.428Z,97849.28
2023-04-07T02:16:45.709Z,97852.50
2023-04-07T02:19:20.879Z,97844.53
2023-04-07T02:21:55.016Z,97832.84
2023-04-07T02:24:27.990Z,97837.72
2023-04-07T02:27:02.153Z,97838.38
2023-04-07T02:29:35.354Z,97832.50
2023-04-07T02:32:09.835Z,97832.41
2023-04-07T02:34:42.983Z,97836.06
2023-04-07T02:37:16.051Z,97821.03
2023-04-07T02:39:49.083Z,97824.59
2023-04-07T02:42:22.126Z,97825.59
2023-04-07T02:44:55.146Z,97816.84
2023-04-07T02:47:29.528Z,97814.50
2023-04-07T02:50:02.646Z,97816.63
2023-04-07T02:52:35.793Z,97820.59
2023-04-07T02:55:10.073Z,97814.97
2023-04-07T02:57:43.306Z,97817.94
2023-04-07T03:00:17.454Z,97817.28
2023-04-07T03:02:52.045Z,97807.91
2023-04-07T03:05:25.147Z,97802.50
2023-04-07T03:07:58.443Z,97803.16
2023-04-07T03:10:31.498Z,97801.41
2023-04-07T03:13:04.576Z,97794.56
2023-04-07T03:15:37.604Z,97789.28
2023-04-07T03:18:12.127Z,97786.50
2023-04-07T03:20:47.581Z,97787.38
2023-04-07T03:23:20.632Z,97774.47
2023-04-07T03:25:53.664Z,97776.56
2023-04-07T03:28:26.725Z,97780.06
2023-04-07T03:30:59.875Z,97777.44
2023-04-07T03:33:34.322Z,97776.13
2023-04-07T03:36:09.282Z,97777.22
2023-04-07T03:38:42.372Z,97779.31
2023-04-07T03:41:15.510Z,97778.44
2023-04-07T03:43:48.565Z,97770.38
2023-04-07T03:46:22.037Z,97776.09
2023-04-07T03:48:56.433Z,97775.31
2023-04-07T03:51:29.500Z,97776.97
2023-04-07T03:54:02.576Z,97783.06
2023-04-07T03:56:35.739Z,97770.56
2023-04-07T03:59:08.917Z,97767.03
2023-04-07T04:01:42.161Z,97771.31
2023-04-07T04:04:17.355Z,97771.31
2023-04-07T04:06:51.227Z,97772.25
2023-04-07T04:09:24.363Z,97775.09
2023-04-07T04:11:57.417Z,97773.41
2023-04-07T04:14:30.440Z,97784.28
2023-04-07T04:17:05.529Z,97777.28
2023-04-07T04:19:40.341Z,97784.03
2023-04-07T04:22:13.441Z,97776.28
2023-04-07T04:24:46.433Z,97779.84
2023-04-07T04:27:19.393Z,97782.25
2023-04-07T04:29:52.443Z,97781.94
2023-04-07T04:32:25.494Z,97775.66
2023-04-07T04:34:59.949Z,97775.66
2023-04-07T04:37:32.974Z,97777.78
2023-04-07T04:40:08.607Z,97773.81
2023-04-07T04:42:42.036Z,97774.03
2023-04-07T04:45:15.068Z,97773.03
2023-04-07T04:47:48.138Z,97777.44
2023-04-07T04:50:22.607Z,97771.81
2023-04-07T04:52:55.744Z,97768.41
2023-04-07T04:55:28.757Z,97766.22
2023-04-07T04:58:01.788Z,97768.63
2023-04-07T05:00:34.896Z,97764.41
2023-04-07T05:03:08.096Z,97761.88
2023-04-07T05:05:42.626Z,97762.75
2023-04-07T05:08:15.636Z,97760.34
2023-04-07T05:10:48.707Z,97756.50
2023-04-07T05:13:21.687Z,97756.28
2023-04-07T05:15:55.121Z,97749.19
2023-04-07T05:18:28.626Z,97752.72
2023-04-07T05:21:02.969Z,97748.97
2023-04-07T05:23:36.442Z,97758.47
2023-04-07T05:26:09.648Z,97756.13
2023-04-07T05:28:42.628Z,97758.47
2023-04-07T05:31:15.708Z,97746.34
2023-04-07T05:33:49.065Z,97748.88
2023-04-07T05:36:23.725Z,97742.56
2023-04-07T05:38:56.821Z,97754.03
2023-04-07T05:41:29.945Z,97760.66
2023-04-07T05:44:02.924Z,97764.53
2023-04-07T05:46:35.917Z,97757.56
2023-04-07T05:49:19.616Z,97766.19
2023-04-07T05:51:54.655Z,97765.53
2023-04-07T05:54:27.775Z,97764.41
2023-04-07T05:57:00.799Z,97770.63
2023-04-07T05:59:33.811Z,97764.19
2023-04-07T06:02:06.959Z,97767.06
2023-04-07T06:04:40.162Z,97766.94
2023-04-07T06:07:14.562Z,97765.53
2023-04-07T06:09:47.604Z,97770.91
2023-04-07T06:12:20.739Z,97763.03
2023-04-07T06:14:55.289Z,97770.78
2023-04-07T06:17:28.303Z,97766.13
2023-04-07T06:20:01.444Z,97773.50
2023-04-07T06:22:35.891Z,97768.34
2023-04-07T06:25:10.442Z,97774.72
2023-04-07T06:27:43.485Z,97766.94
2023-04-07T06:30:17.060Z,97769.19
2023-04-07T06:32:50.141Z,97765.66
2023-04-07T06:35:23.214Z,97772.50
2023-04-07T06:37:58.173Z,97771.19
2023-04-07T06:40:31.204Z,97763.69
2023-04-07T06:43:04.808Z,97761.84
2023-04-07T06:45:37.790Z,97762.41
2023-04-07T06:48:11.046Z,97760.84
2023-04-07T06:50:47.605Z,97765.34
2023-04-07T06:53:22.004Z,97755.38
2023-04-07T06:56:05.453Z,97762.66
2023-04-07T06:58:39.679Z,97756.03
2023-04-07T07:01:12.734Z,97765.41
2023-04-07T07:03:46.741Z,97762.88
2023-04-07T07:06:20.010Z,97764.84
2023-04-07T07:08:54.540Z,97768.31
2023-04-07T07:11:27.637Z,97765.56
2023-04-07T07:14:00.708Z,97770.34
2023-04-07T07:16:33.798Z,97763.34
2023-04-07T07:19:06.841Z,97765.69
2023-04-07T07:21:39.848Z,97762.09
2023-04-07T07:24:14.203Z,97763.78
2023-04-07T07:26:47.270Z,97759.13
2023-04-07T07:29:21.268Z,97766.94
2023-04-07T07:31:55.146Z,97767.00
2023-04-07T07:34:28.858Z,97767.38
2023-04-07T07:37:01.902Z,97767.19
2023-04-07T07:39:36.640Z,97762.22
2023-04-07T07:42:09.652Z,97765.03
2023-04-07T07:44:42.697Z,97765.81
2023-04-07T07:47:15.741Z,97763.25
2023-04-07T07:49:48.802Z,97763.56
2023-04-07T07:52:22.016Z,97761.31
2023-04-07T07:54:56.398Z,97760.72
2023-04-07T07:57:30.892Z,97760.38
2023-04-07T08:00:04.692Z,97764.38
2023-04-07T08:02:38.867Z,97767.50
2023-04-07T08:05:12.799Z,97761.44
2023-04-07T08:07:46.890Z,97765.44
2023-04-07T08:10:21.869Z,97767.72
2023-04-07T08:12:54.916Z,97769.47
2023-04-07T08:15:28.126Z,97766.34
2023-04-07T08:18:04.442Z,97773.22
2023-04-07T08:20:37.860Z,97772.91
2023-04-07T08:23:10.970Z,97769.88
2023-04-07T08:25:45.342Z,97765.69
2023-04-07T08:28:18.406Z,97767.13
2023-04-07T08:30:51.413Z,97776.47
2023-04-07T08:33:24.568Z,97770.22
2023-04-07T08:35:57.967Z,97775.09
2023-04-07T08:38:31.307Z,97774.56
2023-04-07T08:41:13.442Z,97766.31
2023-04-07T08:43:49.613Z,97773.50
2023-04-07T08:46:24.385Z,97767.19
2023-04-07T08:48:59.205Z,97774.75
2023-04-07T08:51:33.841Z,97767.34
2023-04-07T08:54:11.522Z,97772.91
2023-04-07T08:56:46.528Z,97769.44
2023-04-07T08:59:23.137Z,97767.16
2023-04-07T09:01:56.507Z,97766.91
2023-04-07T09:04:30.247Z,97765.41
2023-04-07T09:07:03.333Z,97767.16
2023-04-07T09:09:36.683Z,97765.06
2023-04-07T09:12:11.389Z,97772.28
2023-04-07T09:14:44.507Z,97771.47
2023-04-07T09:17:17.600Z,97773.31
2023-04-07T09:19:50.689Z,97772.50
2023-04-07T09:22:37.768Z,97770.78
2023-04-07T09:25:16.721Z,97772.09
2023-04-07T09:28:02.915Z,97773.56
2023-04-07T09:30:35.999Z,97773.00
2023-04-07T09:33:10.496Z,97778.00
2023-04-07T09:35:54.248Z,97773.59
2023-04-07T09:38:35.537Z,97777.84
2023-04-07T09:41:10.557Z,97773.88
2023-04-07T09:43:46.930Z,97778.84
2023-04-07T09:46:21.049Z,97781.59
2023-04-07T09:49:05.791Z,97779.59
2023-04-07T09:51:39.123Z,97779.41
2023-04-07T09:54:12.452Z,97780.75
2023-04-07T09:56:46.667Z,97777.53
2023-04-07T09:59:21.860Z,97775.75
2023-04-07T10:01:56.899Z,97776.91
2023-04-07T10:04:30.920Z,97779.81
2023-04-07T10:07:04.357Z,97773.25
2023-04-07T10:09:37.422Z,97785.25
2023-04-07T10:12:10.481Z,97775.16
2023-04-07T10:14:47.130Z,97774.88
2023-04-07T10:17:21.353Z,97778.06
2023-04-07T10:19:54.796Z,97779.63
2023-04-07T10:22:29.146Z,97769.56
2023-04-07T10:25:08.074Z,97773.97
2023-04-07T10:27:50.467Z,97777.53
2023-04-07T10:30:28.180Z,97772.38
2023-04-07T10:33:01.521Z,97775.38
2023-04-07T10:36:06.197Z,97770.19
2023-04-07T10:38:39.301Z,97772.56
2023-04-07T10:41:35.676Z,97776.59
2023-04-07T10:44:10.961Z,97767.28
2023-04-07T10:47:07.617Z,97769.44
2023-04-07T10:49:40.630Z,97767.34
2023-04-07T10:52:24.221Z,97769.16
2023-04-07T10:55:37.813Z,97773.78
2023-04-07T10:58:29.068Z,97772.34
2023-04-07T11:01:21.835Z,97781.47
2023-04-07T11:04:01.428Z,97777.94
2023-04-07T11:06:34.688Z,97771.06
2023-04-07T11:09:20.269Z,97776.13
2023-04-07T11:11:53.505Z,97777.56
2023-04-07T11:14:28.199Z,97771.34
2023-04-07T11:17:02.117Z,97767.72
2023-04-07T11:19:52.449Z,97773.03
2023-04-07T11:22:30.235Z,97771.59
2023-04-07T11:25:03.849Z,97773.44
2023-04-07T11:27:36.946Z,97768.72
2023-04-07T11:30:11.911Z,97766.25
2023-04-07T11:32:50.806Z,97763.03
2023-04-07T11:35:26.292Z,97764.97
2023-04-07T11:38:00.884Z,97763.78
2023-04-07T11:40:36.940Z,97763.38
2023-04-07T11:43:18.449Z,97756.47
2023-04-07T11:46:09.525Z,97758.75
2023-04-07T11:48:44.530Z,97768.00
2023-04-07T11:51:20.962Z,97760.09
2023-04-07T11:53:57.391Z,97767.94
2023-04-07T11:56:30.536Z,97764.31
2023-04-07T11:59:03.670Z,97755.22
2023-04-07T12:01:43.150Z,97758.84
2023-04-07T12:04:17.288Z,97762.66
2023-04-07T12:06:52.008Z,97760.47
2023-04-07T12:09:32.286Z,97755.34
2023-04-07T12:12:07.746Z,97761.34
2023-04-07T12:14:40.837Z,97765.94
2023-04-07T12:17:22.227Z,97758.84
2023-04-07T12:19:55.336Z,97755.88
2023-04-07T12:22:29.644Z,97757.94
2023-04-07T12:25:02.637Z,97760.97
2023-04-07T12:27:42.701Z,97765.00
2023-04-07T12:30:16.743Z,97763.78
2023-04-07T12:32:49.924Z,97760.72
2023-04-07T12:35:23.899Z,97759.81
2023-04-07T12:37:58.261Z,97761.28
2023-04-07T12:40:31.712Z,97766.69
2023-04-07T12:43:04.979Z,97757.34
2023-04-07T12:45:38.004Z,97764.38
2023-04-07T12:48:11.044Z,97755.22
2023-04-07T12:50:44.040Z,97751.84
2023-04-07T12:53:18.327Z,97754.09
2023-04-07T12:55:51.322Z,97752.97
2023-04-07T12:58:24.500Z,97752.00
2023-04-07T13:00:58.472Z,97750.56
2023-04-07T13:03:31.764Z,97753.38
2023-04-07T13:06:05.779Z,97752.09
2023-04-07T13:08:40.675Z,97759.72
2023-04-07T13:11:14.689Z,97757.53
2023-04-07T13:13:47.868Z,97752.81
2023-04-07T13:16:21.270Z,97751.56
2023-04-07T13:18:54.324Z,97754.00
2023-04-07T13:21:45.243Z,97755.47
2023-04-07T13:24:21.568Z,97747.78
2023-04-07T13:26:54.551Z,97752.63
2023-04-07T13:29:27.801Z,97742.13
2023-04-07T13:32:07.394Z,97745.44
2023-04-07T13:34:40.987Z,97741.34
2023-04-07T13:37:13.993Z,97744.25
2023-04-07T13:39:48.550Z,97742.19
2023-04-07T13:42:22.142Z,97735.41
2023-04-07T13:44:55.098Z,97744.13
2023-04-07T13:47:30.388Z,97746.88
2023-04-07T13:50:05.046Z,97742.13
2023-04-07T13:52:38.001Z,97747.94
2023-04-07T13:55:12.541Z,97739.03
2023-04-07T13:57:45.844Z,97741.69
2023-04-07T14:00:19.544Z,97743.84
2023-04-07T14:02:52.702Z,97745.19
2023-04-07T14:05:25.917Z,97744.00
2023-04-07T14:07:58.889Z,97743.75
2023-04-07T14:10:34.003Z,97756.91
2023-04-07T14:13:07.017Z,97752.72
2023-04-07T14:15:40.032Z,97752.28
2023-04-07T14:18:13.104Z,97763.78
2023-04-07T14:20:46.583Z,97758.25
2023-04-07T14:23:33.793Z,97757.38
2023-04-07T14:26:12.490Z,97767.97
2023-04-07T14:28:45.724Z,97766.63
2023-04-07T14:31:18.818Z,97766.94
2023-04-07T14:33:52.052Z,97773.81
2023-04-07T14:36:25.213Z,97773.56
2023-04-07T14:38:58.357Z,97780.28
2023-04-07T14:41:32.723Z,97776.84
2023-04-07T14:44:06.242Z,97778.53
2023-04-07T14:46:39.276Z,97772.75
2023-04-07T14:49:13.104Z,97781.88
2023-04-07T14:51:46.352Z,97776.06
2023-04-07T14:54:19.336Z,97782.03
2023-04-07T14:56:53.656Z,97778.56
2023-04-07T14:59:26.657Z,97776.59
2023-04-07T15:01:59.728Z,97777.16
2023-04-07T15:04:33.083Z,97777.72
2023-04-07T15:07:06.801Z,97779.50
2023-04-07T15:09:39.933Z,97782.59
2023-04-07T15:12:14.316Z,97776.84
2023-04-07T15:14:47.337Z,97772.59
2023-04-07T15:17:27.587Z,97776.53
2023-04-07T15:20:07.803Z,97774.50
2023-04-07T15:22:40.886Z,97784.47
2023-04-07T15:25:13.848Z,97785.38
2023-04-07T15:27:48.227Z,97788.72
2023-04-07T15:30:21.313Z,97791.69
2023-04-07T15:33:00.926Z,97790.66
2023-04-07T15:35:33.982Z,97788.63
2023-04-07T15:38:07.086Z,97796.53
2023-04-07T15:40:42.061Z,97796.78
2023-04-07T15:43:16.406Z,97794.84
2023-04-07T15:45:49.479Z,97797.72
2023-04-07T15:48:22.584Z,97791.97
2023-04-07T15:50:55.722Z,97791.31
2023-04-07T15:53:28.813Z,97798.22
2023-04-07T15:56:02.291Z,97798.53
2023-04-07T15:58:36.708Z,97791.47
2023-04-07T16:01:09.796Z,97786.03
2023-04-07T16:03:42.868Z,97799.16
2023-04-07T16:06:15.960Z,97795.91
2023-04-07T16:08:49.038Z,97796.38
2023-04-07T16:11:22.325Z,97798.78
2023-04-07T16:13:56.642Z,97803.34
2023-04-07T16:16:29.647Z,97798.22
2023-04-07T16:19:02.632Z,97800.22
2023-04-07T16:21:35.654Z,97802.50
2023-04-07T16:24:08.622Z,97806.13
2023-04-07T16:26:41.578Z,97811.63
2023-04-07T16:29:15.961Z,97820.13
2023-04-07T16:31:49.024Z,97814.13
2023-04-07T16:34:22.005Z,97821.72
2023-04-07T16:36:54.995Z,97824.50
2023-04-07T16:39:29.558Z,97826.03
2023-04-07T16:42:03.377Z,97833.53
2023-04-07T16:44:37.694Z,97831.59
2023-04-07T16:47:10.726Z,97838.50
2023-04-07T16:49:43.754Z,97834.00
2023-04-07T16:52:18.240Z,97833.50
2023-04-07T16:54:52.526Z,97843.56
2023-04-07T16:57:25.547Z,97844.06
2023-04-07T17:00:00.466Z,97849.00
2023-04-07T17:02:33.800Z,97848.78
2023-04-07T17:05:08.228Z,97859.50
2023-04-07T17:07:41.190Z,97852.97
2023-04-07T17:10:14.608Z,97860.66
2023-04-07T17:12:52.131Z,97852.38
2023-04-07T17:15:26.532Z,97858.66
2023-04-07T17:17:59.726Z,97858.50
2023-04-07T17:20:32.726Z,97864.84
2023-04-07T17:23:05.696Z,97863.69
2023-04-07T17:25:38.887Z,97872.13
2023-04-07T17:28:11.961Z,97878.84
2023-04-07T17:30:46.305Z,97878.72
2023-04-07T17:33:19.288Z,97880.41
2023-04-07T17:35:52.288Z,97885.69
2023-04-07T17:38:25.285Z,97887.97
2023-04-07T17:40:59.424Z,97891.31
2023-04-07T17:43:32.702Z,97892.88
2023-04-07T17:46:07.138Z,97897.31
2023-04-07T17:48:40.112Z,97901.03
2023-04-07T17:51:13.945Z,97902.59
2023-04-07T17:53:47.340Z,97906.63
2023-04-07T17:56:20.718Z,97907.09
2023-04-07T17:58:53.731Z,97910.41
2023-04-07T18:01:28.079Z,97912.69
2023-04-07T18:04:01.503Z,97909.84
2023-04-07T18:06:36.904Z,97913.22
2023-04-07T18:09:10.153Z,97918.22
2023-04-07T18:11:43.208Z,97918.72
2023-04-07T18:14:16.546Z,97926.97
2023-04-07T18:16:50.889Z,97929.06
2023-04-07T18:19:24.000Z,97934.78
2023-04-07T18:21:57.044Z,97935.47
2023-04-07T18:24:30.027Z,97936.22
2023-04-07T18:27:04.021Z,97937.13
2023-04-07T18:29:37.008Z,97942.25
2023-04-07T18:32:11.421Z,97946.53
2023-04-07T18:34:47.775Z,97949.84
2023-04-07T18:37:21.034Z,97952.03
2023-04-07T18:39:54.341Z,97952.63
2023-04-07T18:42:27.485Z,97959.31
2023-04-07T18:45:00.650Z,97961.66
2023-04-07T18:47:35.012Z,97960.47
2023-04-07T18:50:09.540Z,97970.00
2023-04-07T18:52:42.480Z,97970.88
2023-04-07T18:55:15.433Z,97972.44
2023-04-07T18:57:48.866Z,97973.84
2023-04-07T19:00:22.017Z,97984.06
2023-04-07T19:02:56.553Z,97983.13
2023-04-07T19:05:29.642Z,97993.47
2023-04-07T19:08:02.568Z,97991.72
2023-04-07T19:10:35.999Z,97992.66
2023-04-07T19:13:08.952Z,97998.44
2023-04-07T19:15:46.055Z,98005.03
2023-04-07T19:18:20.978Z,98006.03
2023-04-07T19:20:53.926Z,98009.56
2023-04-07T19:23:27.076Z,98014.25
2023-04-07T19:26:00.803Z,98019.97
2023-04-07T19:28:33.881Z,98023.47
2023-04-07T19:31:07.157Z,98031.72
2023-04-07T19:33:41.543Z,98031.91
2023-04-07T19:36:14.574Z,98036.84
2023-04-07T19:38:47.524Z,98033.19
2023-04-07T19:41:21.114Z,98033.28
2023-04-07T19:43:54.259Z,98036.25
2023-04-07T19:46:27.301Z,98040.25
2023-04-07T19:49:01.690Z,98033.09
2023-04-07T19:51:35.310Z,98030.31
2023-04-07T19:54:08.401Z,98041.94
2023-04-07T19:56:41.459Z,98029.94
2023-04-07T19:59:14.633Z,98042.00
2023-04-07T20:01:47.795Z,98034.34
2023-04-07T20:04:22.276Z,98033.47
2023-04-07T20:06:55.361Z,98029.19
2023-04-07T20:09:28.634Z,98035.22
2023-04-07T20:12:01.780Z,98043.69
2023-04-07T20:14:34.882Z,98035.22
2023-04-07T20:17:08.139Z,98045.44
2023-04-07T20:19:43.007Z,98042.13
2023-04-07T20:22:16.116Z,98045.25
2023-04-07T20:24:49.162Z,98053.56
2023-04-07T20:27:22.229Z,98049.06
2023-04-07T20:29:55.265Z,98050.53
2023-04-07T20:32:28.970Z,98049.66
2023-04-07T20:35:04.800Z,98056.78
2023-04-07T20:37:37.841Z,98057.09
2023-04-07T20:40:12.488Z,98058.09
2023-04-07T20:42:46.671Z,98055.25
2023-04-07T20:45:19.983Z,98065.25
2023-04-07T20:47:52.992Z,98064.16
2023-04-07T20:50:28.445Z,98064.69
2023-04-07T20:53:01.511Z,98065.25
2023-04-07T20:55:34.518Z,98067.72
2023-04-07T20:58:07.535Z,98066.78
2023-04-07T21:00:40.778Z,98072.09
2023-04-07T21:03:14.122Z,98061.69
2023-04-07T21:05:49.768Z,98070.53
2023-04-07T21:08:24.490Z,98075.63
2023-04-07T21:10:57.603Z,98074.44
2023-04-07T21:13:30.628Z,98077.59
2023-04-07T21:16:05.585Z,98086.78
2023-04-07T21:18:38.636Z,98079.25
2023-04-07T21:21:12.987Z,98076.59
2023-04-07T21:23:46.116Z,98070.63
2023-04-07T21:26:19.108Z,98082.56
2023-04-07T21:28:52.902Z,98089.25
2023-04-07T21:31:26.689Z,98094.25
2023-04-07T21:33:59.786Z,98087.59
2023-04-07T21:36:34.592Z,98087.78
2023-04-07T21:39:08.062Z,98089.53
2023-04-07T21:41:41.935Z,98088.66
2023-04-07T21:44:19.797Z,98086.44
2023-04-07T21:46:53.096Z,98085.44
2023-04-07T21:49:26.428Z,98076.31
2023-04-07T21:52:00.939Z,98083.22
2023-04-07T21:54:34.279Z,98081.34
2023-04-07T21:57:07.346Z,98083.47
2023-04-07T21:59:40.512Z,98085.84
2023-04-07T22:02:14.068Z,98087.59
2023-04-07T22:04:47.220Z,98090.13
2023-04-07T22:07:21.629Z,98083.16
2023-04-07T22:09:54.673Z,98095.22
2023-04-07T22:12:27.705Z,98089.34
2023-04-07T22:15:00.780Z,98084.16
2023-04-07T22:17:33.946Z,98083.78
2023-04-07T22:20:10.599Z,98089.66
2023-04-07T22:22:44.980Z,98082.47
2023-04-07T22:25:18.285Z,98086.78
2023-04-07T22:27:52.271Z,98090.81
2023-04-07T22:30:25.764Z,98095.22
2023-04-07T22:32:58.854Z,98090.94
2023-04-07T22:35:32.125Z,98089.13
2023-04-07T22:38:06.959Z,98099.53
2023-04-07T22:40:39.951Z,98094.84
2023-04-07T22:43:13.022Z,98097.06
2023-04-07T22:45:46.054Z,98096.06
2023-04-07T22:48:19.294Z,98102.81
2023-04-07T22:50:52.261Z,98107.94
2023-04-07T22:53:26.603Z,98107.06
2023-04-07T22:55:59.586Z,98106.97
2023-04-07T22:58:32.569Z,98110.19
2023-04-07T23:01:05.667Z,98102.63
2023-04-07T23:03:38.823Z,98110.28
2023-04-07T23:06:11.950Z,98101.75
2023-04-07T23:08:46.578Z,98105.50
2023-04-07T23:11:20.957Z,98109.91
2023-04-07T23:13:55.110Z,98107.25
2023-04-07T23:16:28.170Z,98108.81
2023-04-07T23:19:01.562Z,98111.28
2023-04-07T23:21:34.633Z,98116.38
2023-04-07T23:24:08.985Z,98115.03
2023-04-07T23:26:42.031Z,98117.56
2023-04-07T23:29:15.098Z,98121.66
2023-04-07T23:31:48.905Z,98121.47
2023-04-07T23:34:22.144Z,98125.56
2023-04-07T23:36:55.167Z,98132.34
2023-04-07T23:39:29.542Z,98127.91
2023-04-07T23:42:03.220Z,98128.69
2023-04-07T23:44:36.556Z,98124.56
2023-04-07T23:47:09.650Z,98127.25
2023-04-07T23:49:42.649Z,98127.34
2023-04-07T23:52:16.207Z,98132.34
2023-04-07T23:54:50.639Z,98126.56
2023-04-07T23:57:23.830Z,98120.66
2023-04-07T23:59:57.175Z,98126.66
